Terminal Aerodrome Forecast
Issued by NWS

Home | Current Version | Previous Version | Graphics & Text | Print | Product List | Glossary On
Versions: 1 2 3 4 5 6 7 8 9 10 11 12 13 14 15 16 17 18 19 20 21 22 23 24 25
000
FTUS43 KABR 251600 AAA
TAFATY
TAF AMD
KATY 251628Z 2516/2612 18007KT P6SM OVC030
      TEMPO 2601/2604 3SM -SN OVC025
     FM260400 12008KT 1SM -SN OVC015
     FM260900 01016G25KT 1SM -SN BLSN OVC010=

USA.gov is the U.S. government's official web portal to all federal, state and local government web resources and services.